createdAt,value
2022-11-25T00:00:31.969Z,17.00
2022-11-25T00:01:31.919Z,15.20
2022-11-25T00:02:35.356Z,14.90
2022-11-25T00:03:33.377Z,14.60
2022-11-25T00:04:32.760Z,19.50
2022-11-25T00:05:32.337Z,16.50
2022-11-25T00:06:32.280Z,15.50
2022-11-25T00:07:31.671Z,14.80
2022-11-25T00:08:31.818Z,14.60
2022-11-25T00:09:32.698Z,15.70
2022-11-25T00:10:31.590Z,14.90
2022-11-25T00:11:31.827Z,15.10
2022-11-25T00:12:31.774Z,12.70
2022-11-25T00:13:32.512Z,16.90
2022-11-25T00:14:31.544Z,16.40
2022-11-25T00:15:31.532Z,16.20
2022-11-25T00:16:31.820Z,17.10
2022-11-25T00:17:32.374Z,14.20
2022-11-25T00:18:31.705Z,12.20
2022-11-25T00:19:36.890Z,14.20
2022-11-25T00:20:31.463Z,18.70
2022-11-25T00:21:31.684Z,15.00
2022-11-25T00:22:31.468Z,13.80
2022-11-25T00:23:33.353Z,14.80
2022-11-25T00:24:35.272Z,12.50
2022-11-25T00:25:36.575Z,16.50
2022-11-25T00:26:31.381Z,14.30
2022-11-25T00:27:31.415Z,16.60
2022-11-25T00:28:41.151Z,17.50
2022-11-25T00:29:34.911Z,14.00
2022-11-25T00:30:31.396Z,13.50
2022-11-25T00:32:46.391Z,16.00
2022-11-25T00:33:41.965Z,15.50
2022-11-25T00:34:41.952Z,14.00
2022-11-25T00:35:41.706Z,13.70
2022-11-25T00:36:41.684Z,13.20
2022-11-25T00:37:41.686Z,15.20
2022-11-25T00:38:41.698Z,13.90
2022-11-25T00:39:41.700Z,13.30
2022-11-25T00:40:41.674Z,17.40
2022-11-25T00:41:41.625Z,14.30
2022-11-25T00:42:41.647Z,13.90
2022-11-25T00:43:42.697Z,13.10
2022-11-25T00:44:42.410Z,14.50
2022-11-25T00:45:41.648Z,14.40
2022-11-25T00:46:41.601Z,15.70
2022-11-25T00:47:43.268Z,16.60
2022-11-25T00:48:41.800Z,14.90
2022-11-25T00:49:42.678Z,15.80
2022-11-25T00:50:42.362Z,16.70
2022-11-25T00:51:42.058Z,16.40
2022-11-25T00:52:41.738Z,15.00
2022-11-25T00:53:41.487Z,17.10
2022-11-25T00:54:41.484Z,15.40
2022-11-25T00:55:44.954Z,16.50
2022-11-25T00:56:41.656Z,17.70
2022-11-25T00:57:43.035Z,18.50
2022-11-25T00:58:52.097Z,16.00
2022-11-25T00:59:41.457Z,17.10
2022-11-25T01:00:41.725Z,15.70
2022-11-25T01:01:42.058Z,17.90
2022-11-25T01:02:41.440Z,16.70
2022-11-25T01:03:46.490Z,14.70
2022-11-25T01:04:41.371Z,15.90
2022-11-25T01:05:41.388Z,17.10
2022-11-25T01:06:41.363Z,16.10
2022-11-25T01:07:41.381Z,16.00
2022-11-25T01:08:41.339Z,17.30
2022-11-25T01:09:42.252Z,17.00
2022-11-25T01:10:41.302Z,17.50
2022-11-25T01:11:41.312Z,17.20
2022-11-25T01:12:41.281Z,16.60
2022-11-25T01:13:41.272Z,16.00
2022-11-25T01:14:41.239Z,18.60
2022-11-25T01:15:41.261Z,15.40
2022-11-25T01:16:41.297Z,15.30
2022-11-25T01:17:41.241Z,16.50
2022-11-25T01:18:41.614Z,15.60
2022-11-25T01:19:41.403Z,13.90
2022-11-25T01:20:41.207Z,14.70
2022-11-25T01:21:41.196Z,15.80
2022-11-25T01:22:41.153Z,15.20
2022-11-25T01:23:41.182Z,16.50
2022-11-25T01:24:41.139Z,15.40
2022-11-25T01:25:44.631Z,16.30
2022-11-25T01:26:41.111Z,15.40
2022-11-25T01:27:41.108Z,17.10
2022-11-25T01:28:41.105Z,17.20
2022-11-25T01:29:41.116Z,18.60
2022-11-25T01:30:41.446Z,16.40
2022-11-25T01:31:41.090Z,18.20
2022-11-25T01:32:45.493Z,17.00
2022-11-25T01:33:41.269Z,19.20
2022-11-25T01:34:41.027Z,18.20
2022-11-25T01:35:41.714Z,14.60
2022-11-25T01:36:40.995Z,15.40
2022-11-25T01:37:41.017Z,16.20
2022-11-25T01:38:40.973Z,16.00
2022-11-25T01:39:40.964Z,17.30
2022-11-25T01:40:40.973Z,15.10
2022-11-25T01:41:40.975Z,12.00
2022-11-25T01:42:40.915Z,17.60
2022-11-25T01:43:40.944Z,15.00
2022-11-25T01:44:40.905Z,20.70
2022-11-25T01:45:40.914Z,18.70
2022-11-25T01:46:40.895Z,19.70
2022-11-25T01:47:40.876Z,21.40
2022-11-25T01:48:40.888Z,20.00
2022-11-25T01:49:40.862Z,37.10
2022-11-25T01:50:40.836Z,31.70
2022-11-25T01:51:40.844Z,19.60
2022-11-25T01:52:40.808Z,35.60
2022-11-25T01:53:40.827Z,29.20
2022-11-25T01:54:40.802Z,33.90
2022-11-25T01:55:40.791Z,30.10
2022-11-25T01:56:40.799Z,29.20
2022-11-25T01:57:40.791Z,26.60
2022-11-25T01:58:40.744Z,27.10
2022-11-25T01:59:40.817Z,36.30
2022-11-25T02:00:40.769Z,18.10
2022-11-25T02:01:40.797Z,16.90
2022-11-25T02:02:40.765Z,15.00
2022-11-25T02:03:40.702Z,17.20
2022-11-25T02:04:40.682Z,13.20
2022-11-25T02:05:40.684Z,15.70
2022-11-25T02:06:40.697Z,16.80
2022-11-25T02:07:40.915Z,14.60
2022-11-25T02:08:40.629Z,18.20
2022-11-25T02:09:40.613Z,15.60
2022-11-25T02:10:40.599Z,17.50
2022-11-25T02:11:40.610Z,16.20
2022-11-25T02:12:40.610Z,15.20
2022-11-25T02:13:40.592Z,15.70
2022-11-25T02:14:40.596Z,15.50
2022-11-25T02:15:40.569Z,14.00
2022-11-25T02:16:40.566Z,18.80
2022-11-25T02:17:40.552Z,17.70
2022-11-25T02:18:40.531Z,20.90
2022-11-25T02:19:40.514Z,24.70
2022-11-25T02:20:40.491Z,16.50
2022-11-25T02:21:40.521Z,14.50
2022-11-25T02:22:40.546Z,12.90
2022-11-25T02:23:40.525Z,14.70
2022-11-25T02:24:40.485Z,13.40
2022-11-25T02:25:40.440Z,15.20
2022-11-25T02:26:40.422Z,14.60
2022-11-25T02:27:40.415Z,17.10
2022-11-25T02:28:40.402Z,16.10
2022-11-25T02:29:40.456Z,19.60
2022-11-25T02:30:40.387Z,20.70
2022-11-25T02:31:40.410Z,21.30
2022-11-25T02:32:40.366Z,19.60
2022-11-25T02:33:40.356Z,30.60
2022-11-25T02:34:40.325Z,86.40
2022-11-25T02:35:40.373Z,26.80
2022-11-25T02:36:40.318Z,40.70
2022-11-25T02:37:40.348Z,32.70
2022-11-25T02:38:40.298Z,42.60
2022-11-25T02:39:40.278Z,31.40
2022-11-25T02:40:40.287Z,82.70
2022-11-25T02:41:40.245Z,36.40
2022-11-25T02:42:40.267Z,24.20
2022-11-25T02:43:40.269Z,28.00
2022-11-25T02:44:40.215Z,32.60
2022-11-25T02:45:40.245Z,51.10
2022-11-25T02:46:40.201Z,72.60
2022-11-25T02:47:40.200Z,29.40
2022-11-25T02:49:07.374Z,31.40
2022-11-25T02:49:41.176Z,25.60
2022-11-25T02:50:40.148Z,43.00
2022-11-25T02:51:40.177Z,38.60
2022-11-25T02:52:40.117Z,64.50
2022-11-25T02:53:40.121Z,39.70
2022-11-25T02:54:40.131Z,40.90
2022-11-25T02:55:40.077Z,33.90
2022-11-25T02:56:40.111Z,85.60
2022-11-25T02:57:40.088Z,77.90
2022-11-25T02:58:40.060Z,49.10
2022-11-25T02:59:40.067Z,40.70
2022-11-25T03:00:40.062Z,101.70
2022-11-25T03:01:40.147Z,49.30
2022-11-25T03:02:40.075Z,46.60
2022-11-25T03:03:40.032Z,39.90
2022-11-25T03:04:40.014Z,36.90
2022-11-25T03:05:39.993Z,27.60
2022-11-25T03:06:39.991Z,33.10
2022-11-25T03:07:40.122Z,43.50
2022-11-25T03:08:39.940Z,31.30
2022-11-25T03:09:39.985Z,51.70
2022-11-25T03:10:39.910Z,35.00
2022-11-25T03:11:39.914Z,41.50
2022-11-25T03:12:39.904Z,30.50
2022-11-25T03:13:39.901Z,46.70
2022-11-25T03:14:39.889Z,41.20
2022-11-25T03:15:39.883Z,38.50
2022-11-25T03:16:39.908Z,29.30
2022-11-25T03:17:39.824Z,26.30
2022-11-25T03:18:39.837Z,39.40
2022-11-25T03:19:39.801Z,38.30
2022-11-25T03:20:39.862Z,52.20
2022-11-25T03:21:39.786Z,21.90
2022-11-25T03:22:39.774Z,28.60
2022-11-25T03:23:39.786Z,24.30
2022-11-25T03:24:39.758Z,33.90
2022-11-25T03:25:39.734Z,69.90
2022-11-25T03:26:39.787Z,27.70
2022-11-25T03:27:39.716Z,25.10
2022-11-25T03:28:39.722Z,52.50
2022-11-25T03:29:39.707Z,22.60
2022-11-25T03:30:39.698Z,19.60
2022-11-25T03:31:39.732Z,26.80
2022-11-25T03:32:39.698Z,26.30
2022-11-25T03:33:39.678Z,26.40
2022-11-25T03:34:39.673Z,25.80
2022-11-25T03:35:39.638Z,48.70
2022-11-25T03:36:39.650Z,45.80
2022-11-25T03:37:39.659Z,29.70
2022-11-25T03:38:39.621Z,32.80
2022-11-25T03:39:39.575Z,37.40
2022-11-25T03:40:39.566Z,23.40
2022-11-25T03:41:39.546Z,22.20
2022-11-25T03:42:39.572Z,21.40
2022-11-25T03:43:39.557Z,21.00
2022-11-25T03:44:39.560Z,36.60
2022-11-25T03:45:39.542Z,29.20
2022-11-25T03:46:39.521Z,25.10
2022-11-25T03:47:39.500Z,45.30
2022-11-25T03:48:39.501Z,26.60
2022-11-25T03:49:39.499Z,31.50
2022-11-25T03:50:39.450Z,45.90
2022-11-25T03:51:39.428Z,39.60
2022-11-25T03:52:39.419Z,22.00
2022-11-25T03:53:39.429Z,31.10
2022-11-25T03:54:39.438Z,20.90
2022-11-25T03:55:39.389Z,19.50
2022-11-25T03:56:39.379Z,33.30
2022-11-25T03:57:39.360Z,44.80
2022-11-25T03:58:39.370Z,25.60
2022-11-25T03:59:39.359Z,28.80
2022-11-25T04:00:39.350Z,29.40
2022-11-25T04:01:44.078Z,21.40
2022-11-25T04:02:40.370Z,38.20
2022-11-25T04:03:39.297Z,33.60
2022-11-25T04:04:39.293Z,58.10
2022-11-25T04:05:39.300Z,38.20
2022-11-25T04:06:39.277Z,54.10
2022-11-25T04:07:39.319Z,35.60
2022-11-25T04:08:39.255Z,42.80
2022-11-25T04:09:39.221Z,46.50
2022-11-25T04:10:39.252Z,25.00
2022-11-25T04:11:39.244Z,30.10
2022-11-25T04:12:39.191Z,18.40
2022-11-25T04:13:39.245Z,63.40
2022-11-25T04:14:39.186Z,30.10
2022-11-25T04:15:39.167Z,59.70
2022-11-25T04:16:39.262Z,46.60
2022-11-25T04:17:39.132Z,57.80
2022-11-25T04:18:39.133Z,22.50
2022-11-25T04:19:39.104Z,23.10
2022-11-25T04:20:39.141Z,22.70
2022-11-25T04:21:39.087Z,18.50
2022-11-25T04:22:39.079Z,25.00
2022-11-25T04:23:39.083Z,28.20
2022-11-25T04:24:39.072Z,25.30
2022-11-25T04:25:39.094Z,35.30
2022-11-25T04:26:39.023Z,25.10
2022-11-25T04:27:39.025Z,23.90
2022-11-25T04:28:39.037Z,25.30
2022-11-25T04:29:39.009Z,19.90
2022-11-25T04:30:39.127Z,54.60
2022-11-25T04:31:38.998Z,22.10
2022-11-25T04:32:38.984Z,22.20
2022-11-25T04:33:38.936Z,20.00
2022-11-25T04:34:38.970Z,21.90
2022-11-25T04:35:38.916Z,16.10
2022-11-25T04:36:38.911Z,19.30
2022-11-25T04:37:38.918Z,57.30
2022-11-25T04:38:38.940Z,22.90
2022-11-25T04:39:38.890Z,13.80
2022-11-25T04:40:38.872Z,48.30
2022-11-25T04:41:38.871Z,51.60
2022-11-25T04:42:38.850Z,44.70
2022-11-25T04:43:38.841Z,29.90
2022-11-25T04:44:38.865Z,72.00
2022-11-25T04:46:06.355Z,22.20
2022-11-25T04:46:39.843Z,56.80
2022-11-25T04:47:38.791Z,22.70
2022-11-25T04:48:38.788Z,26.90
2022-11-25T04:49:38.750Z,78.90
2022-11-25T04:50:38.772Z,38.70
2022-11-25T04:51:38.758Z,25.00
2022-11-25T04:52:38.719Z,34.10
2022-11-25T04:53:38.710Z,32.50
2022-11-25T04:54:38.689Z,35.50
2022-11-25T04:55:38.724Z,30.60
2022-11-25T04:56:38.723Z,31.00
2022-11-25T04:57:38.692Z,46.00
2022-11-25T04:58:38.674Z,62.00
2022-11-25T04:59:38.642Z,81.80
2022-11-25T05:00:38.628Z,83.00
2022-11-25T05:01:38.678Z,38.90
2022-11-25T05:02:38.675Z,41.60
2022-11-25T05:03:39.835Z,40.60
2022-11-25T05:04:38.683Z,36.30
2022-11-25T05:05:38.571Z,27.80
2022-11-25T05:06:38.601Z,48.30
2022-11-25T05:07:38.622Z,65.10
2022-11-25T05:08:38.561Z,88.50
2022-11-25T05:09:38.545Z,50.30
2022-11-25T05:10:38.511Z,64.00
2022-11-25T05:11:38.502Z,62.90
2022-11-25T05:12:38.533Z,34.40
2022-11-25T05:13:38.520Z,35.90
2022-11-25T05:14:38.576Z,15.20
2022-11-25T05:15:38.453Z,50.30
2022-11-25T05:16:38.532Z,28.90
2022-11-25T05:17:38.438Z,17.50
2022-11-25T05:18:38.442Z,22.20
2022-11-25T05:19:38.432Z,46.80
2022-11-25T05:20:38.391Z,26.50
2022-11-25T05:21:38.495Z,23.40
2022-11-25T05:22:38.374Z,20.30
2022-11-25T05:23:38.399Z,19.60
2022-11-25T05:24:38.426Z,11.10
2022-11-25T05:25:38.334Z,26.20
2022-11-25T05:26:38.318Z,18.70
2022-11-25T05:27:38.388Z,16.50
2022-11-25T05:28:38.344Z,22.50
2022-11-25T05:29:38.310Z,24.10
2022-11-25T05:30:38.345Z,23.70
2022-11-25T05:31:38.290Z,14.30
2022-11-25T05:32:38.295Z,13.40
2022-11-25T05:33:38.266Z,20.20
2022-11-25T05:34:38.557Z,38.00
2022-11-25T05:35:38.220Z,19.00
2022-11-25T05:36:38.230Z,11.30
2022-11-25T05:37:38.198Z,13.50
2022-11-25T05:38:38.218Z,10.80
2022-11-25T05:39:38.207Z,14.00
2022-11-25T05:40:38.188Z,11.30
2022-11-25T05:41:38.161Z,10.30
2022-11-25T05:42:38.129Z,10.60
2022-11-25T05:43:38.128Z,9.70
2022-11-25T05:44:38.386Z,9.00
2022-11-25T05:45:38.199Z,11.00
2022-11-25T05:46:38.129Z,8.30
2022-11-25T05:47:38.109Z,9.80
2022-11-25T05:48:38.108Z,10.50
2022-11-25T05:49:38.074Z,8.90
2022-11-25T05:50:38.062Z,10.20
2022-11-25T05:51:38.042Z,10.10
2022-11-25T05:52:38.045Z,8.30
2022-11-25T05:53:38.025Z,14.40
2022-11-25T05:54:38.416Z,7.10
2022-11-25T05:55:38.014Z,12.00
2022-11-25T05:56:37.992Z,10.20
2022-11-25T05:57:37.985Z,9.40
2022-11-25T05:58:37.951Z,11.00
2022-11-25T05:59:38.024Z,8.40
2022-11-25T06:00:37.979Z,9.60
2022-11-25T06:01:37.941Z,13.10
2022-11-25T06:02:37.960Z,11.00
2022-11-25T06:03:37.938Z,11.10
2022-11-25T06:04:38.155Z,12.00
2022-11-25T06:05:37.863Z,12.50
2022-11-25T06:06:37.918Z,12.10
2022-11-25T06:07:37.869Z,13.60
2022-11-25T06:08:37.853Z,11.10
2022-11-25T06:09:37.838Z,15.00
2022-11-25T06:10:37.828Z,19.10
2022-11-25T06:11:37.817Z,12.20
2022-11-25T06:12:37.847Z,13.30
2022-11-25T06:13:37.787Z,18.60
2022-11-25T06:14:38.005Z,13.80
2022-11-25T06:15:37.809Z,21.70
2022-11-25T06:16:37.765Z,15.40
2022-11-25T06:17:37.768Z,15.80
2022-11-25T06:18:37.805Z,26.10
2022-11-25T06:19:37.704Z,16.50
2022-11-25T06:20:37.717Z,17.60
2022-11-25T06:21:37.696Z,17.40
2022-11-25T06:22:37.815Z,12.50
2022-11-25T06:23:37.675Z,12.60
2022-11-25T06:24:37.838Z,13.60
2022-11-25T06:25:37.656Z,19.40
2022-11-25T06:26:37.646Z,16.60
2022-11-25T06:28:04.423Z,17.00
2022-11-25T06:28:38.627Z,23.10
2022-11-25T06:29:37.620Z,30.80
2022-11-25T06:30:37.578Z,19.40
2022-11-25T06:31:37.608Z,22.10
2022-11-25T06:32:37.669Z,17.00
2022-11-25T06:33:37.558Z,16.90
2022-11-25T06:34:37.959Z,14.90
2022-11-25T06:35:37.533Z,18.60
2022-11-25T06:36:37.530Z,13.90
2022-11-25T06:37:37.499Z,21.00
2022-11-25T06:38:37.584Z,13.90
2022-11-25T06:39:37.501Z,16.10
2022-11-25T06:40:37.468Z,16.20
2022-11-25T06:41:37.459Z,15.80
2022-11-25T06:42:37.474Z,19.80
2022-11-25T06:43:37.432Z,18.70
2022-11-25T06:44:37.755Z,23.20
2022-11-25T06:45:37.422Z,22.00
2022-11-25T06:46:37.499Z,25.60
2022-11-25T06:47:37.379Z,24.10
2022-11-25T06:48:37.409Z,24.80
2022-11-25T06:49:37.373Z,22.10
2022-11-25T06:50:37.710Z,26.70
2022-11-25T06:51:37.370Z,31.90
2022-11-25T06:52:37.353Z,36.80
2022-11-25T06:53:37.451Z,32.40
2022-11-25T06:54:38.351Z,32.90
2022-11-25T06:55:37.331Z,33.40
2022-11-25T06:56:37.282Z,33.00
2022-11-25T06:57:37.302Z,35.40
2022-11-25T06:58:37.263Z,35.20
2022-11-25T06:59:37.266Z,40.30
2022-11-25T07:00:37.263Z,35.20
2022-11-25T07:01:37.341Z,39.40
2022-11-25T07:02:42.898Z,41.10
2022-11-25T07:03:38.254Z,44.40
2022-11-25T07:04:37.465Z,37.50
2022-11-25T07:05:37.228Z,49.80
2022-11-25T07:06:37.205Z,35.90
2022-11-25T07:07:37.202Z,42.50
2022-11-25T07:08:37.174Z,34.00
2022-11-25T07:09:37.155Z,38.30
2022-11-25T07:10:37.142Z,40.10
2022-11-25T07:11:37.137Z,38.00
2022-11-25T07:12:37.114Z,34.10
2022-11-25T07:13:37.145Z,35.40
2022-11-25T07:14:37.244Z,32.80
2022-11-25T07:15:37.175Z,32.10
2022-11-25T07:16:43.450Z,28.40
2022-11-25T07:17:37.048Z,27.00
2022-11-25T07:18:37.066Z,29.10
2022-11-25T07:19:38.065Z,28.00
2022-11-25T07:20:37.035Z,32.50
2022-11-25T07:21:37.040Z,31.60
2022-11-25T07:22:36.999Z,32.10
2022-11-25T07:23:36.990Z,31.90
2022-11-25T07:24:37.292Z,34.90
2022-11-25T07:25:36.970Z,31.00
2022-11-25T07:26:37.000Z,34.60
2022-11-25T07:27:36.937Z,37.80
2022-11-25T07:28:36.932Z,33.60
2022-11-25T07:29:57.892Z,37.40
2022-11-25T07:31:38.331Z,32.80
2022-11-25T07:32:36.867Z,30.50
2022-11-25T07:33:39.941Z,38.60
2022-11-25T07:34:36.897Z,32.10
2022-11-25T07:35:36.881Z,34.00
2022-11-25T07:36:36.827Z,32.60
2022-11-25T07:37:36.829Z,31.80
2022-11-25T07:38:36.823Z,30.00
2022-11-25T07:39:37.244Z,35.50
2022-11-25T07:40:36.792Z,34.40
2022-11-25T07:41:36.792Z,33.20
2022-11-25T07:42:36.793Z,36.60
2022-11-25T07:43:36.770Z,35.80
2022-11-25T07:44:36.863Z,37.00
2022-11-25T07:45:36.764Z,31.40
2022-11-25T07:46:36.790Z,31.20
2022-11-25T07:47:36.723Z,29.30
2022-11-25T07:48:36.714Z,33.30
2022-11-25T07:49:36.955Z,30.80
2022-11-25T07:50:36.674Z,30.80
2022-11-25T07:51:36.684Z,29.70
2022-11-25T07:52:36.641Z,27.50
2022-11-25T07:53:36.645Z,29.80
2022-11-25T07:54:36.652Z,26.50
2022-11-25T07:55:36.613Z,24.50
2022-11-25T07:56:36.620Z,25.70
2022-11-25T07:57:36.604Z,24.60
2022-11-25T07:58:38.413Z,21.50
2022-11-25T07:59:38.001Z,21.40
2022-11-25T08:00:36.574Z,21.30
2022-11-25T08:01:36.626Z,20.60
2022-11-25T08:02:36.660Z,20.10
2022-11-25T08:03:36.524Z,21.40
2022-11-25T08:04:36.505Z,22.10
2022-11-25T08:05:36.514Z,21.00
2022-11-25T08:06:36.496Z,22.40
2022-11-25T08:07:37.075Z,20.40
2022-11-25T08:08:36.469Z,18.80
2022-11-25T08:09:36.658Z,19.40
2022-11-25T08:10:36.447Z,20.30
2022-11-25T08:11:36.485Z,19.80
2022-11-25T08:12:36.433Z,21.20
2022-11-25T08:13:36.425Z,26.70
2022-11-25T08:14:36.395Z,23.40
2022-11-25T08:15:36.438Z,23.50
2022-11-25T08:16:36.409Z,23.90
2022-11-25T08:17:36.355Z,20.20
2022-11-25T08:18:36.382Z,24.40
2022-11-25T08:19:36.725Z,25.70
2022-11-25T08:20:36.331Z,20.30
2022-11-25T08:21:36.380Z,18.00
2022-11-25T08:22:36.309Z,22.30
2022-11-25T08:23:36.287Z,27.60
2022-11-25T08:24:36.287Z,28.30
2022-11-25T08:25:36.257Z,25.10
2022-11-25T08:26:36.257Z,24.10
2022-11-25T08:27:36.357Z,27.80
2022-11-25T08:28:36.231Z,26.20
2022-11-25T08:29:36.392Z,29.40
2022-11-25T08:30:36.209Z,18.00
2022-11-25T08:31:36.261Z,15.90
2022-11-25T08:32:36.231Z,16.10
2022-11-25T08:33:36.202Z,19.50
2022-11-25T08:34:36.159Z,14.30
2022-11-25T08:35:36.163Z,19.40
2022-11-25T08:36:36.162Z,17.40
2022-11-25T08:37:36.139Z,16.00
2022-11-25T08:38:36.162Z,18.30
2022-11-25T08:39:53.200Z,14.40
2022-11-25T08:40:37.096Z,16.70
2022-11-25T08:41:36.091Z,19.50
2022-11-25T08:42:36.091Z,15.10
2022-11-25T08:43:36.082Z,18.00
2022-11-25T08:44:36.052Z,20.00
2022-11-25T08:45:36.072Z,31.40
2022-11-25T08:46:36.110Z,35.30
2022-11-25T08:47:36.058Z,32.40
2022-11-25T08:48:36.014Z,25.30
2022-11-25T08:49:40.891Z,24.60
2022-11-25T08:50:37.016Z,17.40
2022-11-25T08:51:35.981Z,15.10
2022-11-25T08:52:35.952Z,16.10
2022-11-25T08:53:35.976Z,13.60
2022-11-25T08:54:35.974Z,13.80
2022-11-25T08:55:35.966Z,11.20
2022-11-25T08:56:35.967Z,14.90
2022-11-25T08:57:35.893Z,10.80
2022-11-25T08:58:35.898Z,14.60
2022-11-25T08:59:36.273Z,14.30
2022-11-25T09:00:35.913Z,13.40
2022-11-25T09:01:35.921Z,13.00
2022-11-25T09:02:35.940Z,12.10
2022-11-25T09:03:35.837Z,13.90
2022-11-25T09:04:35.805Z,12.30
2022-11-25T09:05:35.829Z,12.80
2022-11-25T09:06:35.798Z,11.90
2022-11-25T09:07:35.854Z,19.40
2022-11-25T09:08:35.797Z,12.00
2022-11-25T09:09:36.108Z,13.20
2022-11-25T09:10:35.726Z,11.90
2022-11-25T09:11:35.825Z,9.70
2022-11-25T09:12:35.708Z,9.50
2022-11-25T09:13:35.776Z,12.20
2022-11-25T09:14:35.712Z,8.70
2022-11-25T09:15:35.777Z,12.60
2022-11-25T09:16:35.744Z,9.50
2022-11-25T09:17:35.691Z,9.40
2022-11-25T09:18:35.636Z,8.10
2022-11-25T09:19:36.024Z,11.40
2022-11-25T09:20:35.623Z,11.00
2022-11-25T09:21:35.621Z,10.50
2022-11-25T09:22:35.587Z,12.10
2022-11-25T09:23:35.594Z,10.00
2022-11-25T09:24:35.632Z,11.30
2022-11-25T09:25:35.571Z,9.80
2022-11-25T09:26:35.619Z,11.30
2022-11-25T09:27:35.548Z,11.10
2022-11-25T09:28:35.537Z,10.80
2022-11-25T09:29:35.869Z,10.20
2022-11-25T09:30:35.543Z,8.40
2022-11-25T09:31:35.551Z,6.90
2022-11-25T09:32:35.469Z,8.20
2022-11-25T09:33:35.492Z,10.00
2022-11-25T09:34:35.824Z,10.70
2022-11-25T09:35:35.506Z,8.60
2022-11-25T09:36:35.435Z,5.90
2022-11-25T09:37:35.475Z,9.00
2022-11-25T09:38:40.155Z,10.40
2022-11-25T09:39:36.732Z,8.60
2022-11-25T09:40:35.381Z,13.30
2022-11-25T09:41:35.405Z,9.40
2022-11-25T09:42:35.362Z,8.30
2022-11-25T09:43:35.376Z,9.20
2022-11-25T09:44:35.344Z,7.30
2022-11-25T09:45:35.342Z,7.60
2022-11-25T09:46:35.357Z,7.30
2022-11-25T09:47:35.325Z,10.30
2022-11-25T09:48:35.284Z,7.30
2022-11-25T09:49:35.655Z,6.20
2022-11-25T09:50:35.284Z,10.60
2022-11-25T09:51:35.258Z,6.80
2022-11-25T09:52:35.268Z,6.00
2022-11-25T09:53:35.275Z,6.10
2022-11-25T09:54:35.229Z,8.40
2022-11-25T09:55:35.218Z,7.80
2022-11-25T09:56:35.186Z,5.00
2022-11-25T09:57:35.229Z,6.80
2022-11-25T09:58:35.179Z,5.10
2022-11-25T09:59:35.539Z,7.90
2022-11-25T10:00:35.160Z,5.70
2022-11-25T10:01:35.135Z,5.00
2022-11-25T10:02:35.335Z,5.60
2022-11-25T10:03:35.224Z,5.90
2022-11-25T10:04:35.097Z,4.90
2022-11-25T10:05:35.123Z,6.40
2022-11-25T10:06:35.141Z,6.20
2022-11-25T10:07:35.072Z,7.00
2022-11-25T10:08:35.049Z,9.70
2022-11-25T10:09:35.520Z,5.10
2022-11-25T10:10:35.075Z,5.60
2022-11-25T10:11:35.083Z,6.90
2022-11-25T10:12:35.009Z,10.20
2022-11-25T10:13:34.988Z,8.20
2022-11-25T10:14:35.000Z,10.30
2022-11-25T10:15:34.969Z,7.40
2022-11-25T10:16:35.096Z,6.50
2022-11-25T10:17:34.972Z,7.30
2022-11-25T10:18:34.932Z,5.70
2022-11-25T10:19:35.249Z,5.50
2022-11-25T10:20:34.911Z,7.90
2022-11-25T10:21:34.948Z,4.90
2022-11-25T10:22:34.887Z,7.40
2022-11-25T10:23:34.922Z,7.80
2022-11-25T10:24:39.838Z,6.10
2022-11-25T10:25:35.877Z,7.10
2022-11-25T10:26:34.862Z,8.70
2022-11-25T10:27:34.833Z,7.50
2022-11-25T10:28:35.123Z,7.10
2022-11-25T10:29:34.812Z,6.10
2022-11-25T10:30:34.817Z,8.50
2022-11-25T10:31:34.947Z,4.70
2022-11-25T10:32:34.794Z,5.00
2022-11-25T10:33:34.778Z,8.30
2022-11-25T10:34:35.293Z,6.10
2022-11-25T10:35:34.749Z,6.40
2022-11-25T10:36:34.749Z,6.50
2022-11-25T10:37:34.748Z,5.70
2022-11-25T10:38:34.733Z,6.90
2022-11-25T10:39:34.703Z,9.10
2022-11-25T10:40:34.709Z,6.90
2022-11-25T10:41:34.682Z,7.40
2022-11-25T10:42:34.679Z,8.60
2022-11-25T10:43:34.638Z,8.80
2022-11-25T10:44:35.058Z,6.20
2022-11-25T10:45:34.632Z,10.00
2022-11-25T10:47:10.913Z,8.70
2022-11-25T10:47:35.678Z,5.10
2022-11-25T10:48:34.611Z,9.70
2022-11-25T10:49:34.598Z,10.60
2022-11-25T10:50:34.587Z,11.40
2022-11-25T10:51:34.557Z,13.40
2022-11-25T10:52:34.547Z,9.70
2022-11-25T10:53:34.542Z,7.50
2022-11-25T10:54:34.531Z,8.40
2022-11-25T10:55:34.513Z,6.90
2022-11-25T10:56:34.519Z,5.10
2022-11-25T10:57:34.544Z,7.90
2022-11-25T10:58:34.490Z,7.00
2022-11-25T10:59:34.513Z,6.00
2022-11-25T11:00:34.454Z,5.20
2022-11-25T11:01:34.444Z,7.20
2022-11-25T11:02:34.503Z,6.70
2022-11-25T11:03:34.486Z,7.20
2022-11-25T11:04:34.613Z,6.60
2022-11-25T11:05:34.406Z,5.20
2022-11-25T11:06:34.382Z,5.60
2022-11-25T11:07:34.433Z,9.50
2022-11-25T11:08:35.208Z,6.50
2022-11-25T11:09:34.516Z,6.40
2022-11-25T11:10:34.604Z,5.10
2022-11-25T11:11:34.427Z,6.40
2022-11-25T11:12:34.302Z,6.40
2022-11-25T11:13:34.349Z,6.50
2022-11-25T11:14:34.853Z,6.40
2022-11-25T11:15:34.525Z,6.40
2022-11-25T11:16:34.608Z,6.80
2022-11-25T11:17:36.809Z,6.60
2022-11-25T11:18:34.235Z,6.00
2022-11-25T11:19:34.576Z,6.20
2022-11-25T11:20:34.284Z,8.30
2022-11-25T11:21:34.370Z,5.50
2022-11-25T11:22:34.188Z,8.50
2022-11-25T11:23:34.189Z,8.10
2022-11-25T11:24:34.980Z,7.00
2022-11-25T11:25:34.172Z,6.00
2022-11-25T11:26:34.155Z,5.50
2022-11-25T11:27:34.172Z,5.00
2022-11-25T11:28:34.160Z,5.30
2022-11-25T11:29:34.123Z,7.70
2022-11-25T11:30:34.152Z,6.60
2022-11-25T11:31:34.147Z,4.90
2022-11-25T11:32:34.093Z,6.50
2022-11-25T11:33:34.109Z,6.40
2022-11-25T11:34:34.257Z,6.50
2022-11-25T11:35:38.971Z,7.60
2022-11-25T11:36:35.148Z,5.10
2022-11-25T11:37:34.155Z,6.70
2022-11-25T11:38:34.053Z,7.20
2022-11-25T11:39:34.034Z,8.60
2022-11-25T11:40:33.986Z,5.50
2022-11-25T11:41:33.985Z,5.50
2022-11-25T11:42:33.981Z,6.40
2022-11-25T11:43:33.951Z,5.90
2022-11-25T11:44:34.257Z,6.00
2022-11-25T11:45:33.943Z,5.90
2022-11-25T11:46:33.988Z,6.40
2022-11-25T11:47:34.003Z,6.80
2022-11-25T11:48:33.909Z,6.40
2022-11-25T11:49:33.907Z,7.00
2022-11-25T11:50:34.003Z,7.10
2022-11-25T11:51:33.872Z,8.00
2022-11-25T11:52:34.713Z,6.80
2022-11-25T11:53:33.958Z,5.60
2022-11-25T11:54:34.039Z,6.90
2022-11-25T11:55:33.828Z,6.20
2022-11-25T11:56:35.673Z,6.70
2022-11-25T11:57:33.877Z,5.90
2022-11-25T11:58:33.799Z,6.30
2022-11-25T11:59:33.778Z,6.90
2022-11-25T12:00:33.770Z,7.90
2022-11-25T12:01:33.874Z,6.90
2022-11-25T12:02:33.785Z,6.80
2022-11-25T12:03:33.832Z,6.20
2022-11-25T12:04:33.767Z,8.10
2022-11-25T12:05:33.700Z,8.50
2022-11-25T12:06:33.713Z,6.20
2022-11-25T12:07:33.855Z,6.90
2022-11-25T12:08:33.657Z,7.00
2022-11-25T12:09:33.698Z,7.10
2022-11-25T12:10:33.895Z,7.30
2022-11-25T12:11:33.654Z,7.00
2022-11-25T12:12:33.634Z,6.40
2022-11-25T12:13:33.616Z,7.50
2022-11-25T12:14:33.885Z,8.10
2022-11-25T12:15:33.644Z,5.60
2022-11-25T12:16:33.706Z,8.70
2022-11-25T12:17:33.593Z,8.30
2022-11-25T12:18:33.560Z,9.60
2022-11-25T12:19:33.532Z,9.40
2022-11-25T12:20:33.545Z,6.60
2022-11-25T12:21:36.339Z,6.80
2022-11-25T12:22:34.531Z,7.30
2022-11-25T12:23:33.483Z,5.70
2022-11-25T12:24:33.542Z,7.20
2022-11-25T12:25:33.507Z,6.10
2022-11-25T12:26:33.443Z,4.40
2022-11-25T12:27:33.474Z,5.40
2022-11-25T12:28:33.445Z,5.20
2022-11-25T12:29:33.438Z,5.20
2022-11-25T12:30:33.412Z,5.70
2022-11-25T12:31:33.524Z,6.70
2022-11-25T12:32:33.413Z,5.80
2022-11-25T12:33:33.385Z,5.30
2022-11-25T12:34:33.409Z,7.30
2022-11-25T12:35:33.353Z,4.70
2022-11-25T12:36:33.335Z,6.00
2022-11-25T12:37:33.430Z,5.80
2022-11-25T12:38:33.326Z,5.70
2022-11-25T12:39:33.304Z,6.10
2022-11-25T12:40:33.301Z,5.60
2022-11-25T12:41:33.296Z,5.20
2022-11-25T12:42:33.294Z,6.10
2022-11-25T12:43:33.300Z,7.20
2022-11-25T12:44:33.807Z,5.40
2022-11-25T12:45:33.346Z,5.80
2022-11-25T12:46:33.255Z,4.90
2022-11-25T12:47:33.341Z,5.70
2022-11-25T12:48:33.210Z,6.90
2022-11-25T12:49:33.202Z,5.00
2022-11-25T12:50:34.465Z,6.50
2022-11-25T12:51:33.195Z,5.80
2022-11-25T12:52:33.168Z,6.30
2022-11-25T12:53:33.191Z,5.20
2022-11-25T12:54:33.333Z,6.60
2022-11-25T12:55:33.137Z,6.30
2022-11-25T12:56:33.133Z,5.00
2022-11-25T12:57:33.089Z,5.40
2022-11-25T12:58:33.157Z,4.10
2022-11-25T12:59:33.102Z,5.10
2022-11-25T13:00:41.629Z,6.40
2022-11-25T13:01:34.125Z,6.40